Time;durP1;ratioP1;P1;durP2;ratioP2;P2;SDS_P1;SDS_P2;PMS_P1;PMS_P2;Temp;Humidity;BMP_temperature;BMP_pressure;BME280_temperature;BME280_humidity;BME280_pressure;Samples;Min_cycle;Max_cycle;Signal;HPM_P1;HPM_P2
2023/04/06 00:00:11;;;;;;;8.60;3.97;;;0.40;98.70;;;;;;5022231;28;20235;-82
2023/04/06 00:02:38;;;;;;;5.03;3.67;;;0.40;98.80;;;;;;5022184;28;20227;-80
2023/04/06 00:05:05;;;;;;;5.80;4.20;;;0.40;98.90;;;;;;5019654;28;20220;-81
2023/04/06 00:07:33;;;;;;;6.30;3.73;;;0.40;99.10;;;;;;5031686;28;20211;-80
2023/04/06 00:10:01;;;;;;;6.13;4.00;;;0.40;99.00;;;;;;5019193;28;20241;-80
2023/04/06 00:12:28;;;;;;;6.03;3.90;;;0.40;99.10;;;;;;5019952;28;20847;-80
2023/04/06 00:14:54;;;;;;;5.27;3.70;;;0.30;99.30;;;;;;5016303;28;20299;-80
2023/04/06 00:17:21;;;;;;;6.83;4.23;;;0.40;99.30;;;;;;5015297;28;20310;-80
2023/04/06 00:19:48;;;;;;;6.50;4.30;;;0.30;99.30;;;;;;5027252;28;20281;-79
2023/04/06 00:22:15;;;;;;;6.97;4.20;;;0.30;99.60;;;;;;5016830;28;20727;-79
2023/04/06 00:24:41;;;;;;;6.33;4.17;;;0.20;99.70;;;;;;5019547;28;20320;-80
2023/04/06 00:27:09;;;;;;;6.90;4.73;;;0.20;99.70;;;;;;5018362;28;20220;-81
2023/04/06 00:29:36;;;;;;;5.63;4.20;;;0.20;99.90;;;;;;5018247;28;20240;-81
2023/04/06 00:32:03;;;;;;;6.97;4.23;;;0.10;99.90;;;;;;5019180;28;20695;-79
2023/04/06 00:34:30;;;;;;;6.57;4.50;;;0.10;99.90;;;;;;5019156;28;20308;-79
2023/04/06 00:36:57;;;;;;;5.10;3.90;;;0.10;99.90;;;;;;5016838;28;20937;-79
2023/04/06 00:39:24;;;;;;;6.20;4.00;;;0.10;99.90;;;;;;5012383;28;20238;-79
2023/04/06 00:41:53;;;;;;;6.30;4.23;;;0.00;99.90;;;;;;5031834;28;20219;-79
2023/04/06 00:44:22;;;;;;;8.03;3.83;;;0.00;99.90;;;;;;5019199;28;20234;-79
2023/04/06 00:46:49;;;;;;;6.43;4.03;;;0.00;99.90;;;;;;5016762;28;20223;-79
2023/04/06 00:49:17;;;;;;;6.43;4.07;;;0.00;99.90;;;;;;5014299;28;20312;-80
2023/04/06 00:51:44;;;;;;;7.40;4.47;;;-0.10;99.90;;;;;;5016657;28;20808;-80
2023/04/06 00:54:11;;;;;;;6.20;4.40;;;-0.10;99.90;;;;;;5016397;28;20307;-80
2023/04/06 00:56:37;;;;;;;6.57;4.60;;;-0.10;99.90;;;;;;5016616;28;21054;-81
2023/04/06 00:59:04;;;;;;;6.60;4.33;;;-0.10;99.90;;;;;;5018702;28;20729;-79
2023/04/06 01:01:33;;;;;;;6.83;4.60;;;-0.10;99.90;;;;;;5014759;28;20950;-79
2023/04/06 01:04:04;;;;;;;6.83;4.80;;;-0.10;99.90;;;;;;5014998;28;20226;-83
2023/04/06 01:06:38;;;;;;;7.17;4.10;;;-0.10;99.90;;;;;;5010787;28;20228;-83
2023/04/06 01:09:05;;;;;;;5.93;4.07;;;-0.20;99.90;;;;;;5017085;28;20227;-80
2023/04/06 01:11:32;;;;;;;6.10;4.07;;;-0.20;99.90;;;;;;5017442;28;20246;-81
2023/04/06 01:13:59;;;;;;;8.60;4.00;;;-0.20;99.90;;;;;;5010452;28;20220;-82
2023/04/06 01:16:28;;;;;;;7.50;4.70;;;-0.20;99.90;;;;;;5030229;28;20251;-80
2023/04/06 01:19:09;;;;;;;7.37;4.10;;;-0.20;99.90;;;;;;5011087;28;20229;-79
2023/04/06 01:21:36;;;;;;;6.27;3.97;;;-0.30;99.90;;;;;;5021309;28;20809;-80
2023/04/06 01:28:02;;;;;;;4.70;3.50;;;-0.40;99.90;;;;;;5014279;28;20790;-79
2023/04/06 01:30:45;;;;;;;4.80;3.93;;;-0.40;99.90;;;;;;5020105;28;20983;-79
2023/04/06 01:33:25;;;;;;;6.70;3.60;;;-0.40;99.90;;;;;;5020124;28;20274;-80
2023/04/06 01:36:05;;;;;;;5.73;4.00;;;-0.50;99.90;;;;;;5012106;28;20228;-79
2023/04/06 01:38:32;;;;;;;5.03;4.10;;;-0.50;99.90;;;;;;5019365;28;20236;-80
2023/04/06 01:40:59;;;;;;;7.10;3.67;;;-0.50;99.90;;;;;;5016118;28;20328;-81
2023/04/06 01:43:31;;;;;;;6.20;3.80;;;-0.60;99.90;;;;;;5029560;28;20229;-80
2023/04/06 01:46:05;;;;;;;6.17;4.40;;;-0.60;99.90;;;;;;5023656;28;20232;-81
2023/04/06 01:48:36;;;;;;;6.13;4.10;;;-0.70;99.90;;;;;;5016406;28;20839;-80
2023/04/06 01:51:11;;;;;;;4.73;3.20;;;-0.70;99.90;;;;;;5012174;28;20793;-82
2023/04/06 01:53:46;;;;;;;5.30;4.10;;;-0.80;99.90;;;;;;5019101;28;20685;-79
2023/04/06 01:56:13;;;;;;;5.53;3.43;;;-0.80;99.90;;;;;;5012868;28;20231;-81
2023/04/06 01:58:47;;;;;;;4.90;3.60;;;-0.80;99.90;;;;;;5017139;28;20883;-80
2023/04/06 02:01:16;;;;;;;4.90;3.67;;;-0.80;99.90;;;;;;5016786;28;20694;-80
2023/04/06 02:03:54;;;;;;;6.10;4.23;;;-0.90;99.90;;;;;;5020807;28;20224;-79
2023/04/06 02:06:22;;;;;;;5.93;4.27;;;-0.90;99.90;;;;;;5018186;28;20251;-79
2023/04/06 02:08:49;;;;;;;5.70;4.47;;;-0.90;99.90;;;;;;5014308;28;20245;-78
2023/04/06 02:11:16;;;;;;;7.03;4.47;;;-0.90;99.90;;;;;;5023038;28;21038;-78
2023/04/06 02:13:49;;;;;;;7.63;4.90;;;-0.90;99.90;;;;;;5012722;28;20227;-78
2023/04/06 02:16:16;;;;;;;5.07;4.00;;;-0.90;99.90;;;;;;5015198;28;20244;-78
2023/04/06 02:18:45;;;;;;;7.73;4.73;;;-1.00;99.90;;;;;;5015721;28;20225;-78
2023/04/06 02:21:12;;;;;;;5.33;4.10;;;-1.00;99.90;;;;;;5013912;28;20217;-78
2023/04/06 02:23:39;;;;;;;8.03;4.57;;;-1.00;99.90;;;;;;5017207;28;20224;-79
2023/04/06 02:26:06;;;;;;;5.47;4.23;;;-1.00;99.90;;;;;;5008885;28;20316;-79
2023/04/06 02:28:32;;;;;;;4.80;4.00;;;-0.90;99.90;;;;;;5013143;28;20231;-78
2023/04/06 02:31:03;;;;;;;7.10;4.47;;;-1.00;99.90;;;;;;5015374;28;20252;-80
2023/04/06 02:33:30;;;;;;;6.20;4.43;;;-0.90;99.90;;;;;;5017668;28;20254;-79
2023/04/06 02:35:57;;;;;;;6.97;4.00;;;-1.00;99.90;;;;;;5020369;28;20580;-79
2023/04/06 02:38:23;;;;;;;7.80;4.50;;;-1.00;99.90;;;;;;5022030;28;20290;-79
2023/04/06 02:40:52;;;;;;;6.60;4.27;;;-1.00;99.90;;;;;;5021919;28;20690;-78
2023/04/06 02:43:22;;;;;;;9.23;4.83;;;-1.00;99.90;;;;;;5022624;28;20239;-80
2023/04/06 02:45:53;;;;;;;7.07;4.90;;;-1.00;99.90;;;;;;5017779;28;20739;-81
2023/04/06 02:48:23;;;;;;;5.67;4.27;;;-1.00;99.90;;;;;;5020145;28;20221;-78
2023/04/06 02:50:50;;;;;;;8.47;5.00;;;-0.90;99.90;;;;;;5022327;28;20249;-79
2023/04/06 02:53:17;;;;;;;8.10;4.40;;;-1.00;99.90;;;;;;5017873;28;20307;-78
2023/04/06 02:55:44;;;;;;;6.83;5.03;;;-0.90;99.90;;;;;;5019162;28;20277;-79
2023/04/06 02:58:11;;;;;;;6.97;4.80;;;-0.90;99.90;;;;;;5018240;28;20229;-78
2023/04/06 03:00:45;;;;;;;7.63;4.47;;;-0.90;99.90;;;;;;5022041;28;20247;-78
2023/04/06 03:03:12;;;;;;;7.13;4.67;;;-0.90;99.90;;;;;;5020414;28;20230;-78
2023/04/06 03:05:43;;;;;;;9.83;5.30;;;-0.90;99.90;;;;;;5019606;28;20250;-79
2023/04/06 03:08:11;;;;;;;7.63;5.03;;;-0.90;99.90;;;;;;5015876;28;20224;-79
2023/04/06 03:10:44;;;;;;;20.57;14.47;;;-0.90;99.90;;;;;;5015129;28;20264;-79
2023/04/06 03:13:11;;;;;;;73.00;41.20;;;-1.00;99.90;;;;;;5017853;28;20297;-81
2023/04/06 03:16:05;;;;;;;29.43;18.60;;;-1.00;99.90;;;;;;5018546;28;20899;-84
2023/04/06 03:18:33;;;;;;;31.53;19.67;;;-1.00;99.90;;;;;;5028174;28;20687;-79
2023/04/06 03:21:01;;;;;;;33.70;21.63;;;-1.00;99.90;;;;;;5018537;28;20229;-79
2023/04/06 03:23:36;;;;;;;24.80;15.40;;;-1.00;99.90;;;;;;5020211;28;20224;-77
2023/04/06 03:26:04;;;;;;;35.17;23.27;;;-1.00;99.90;;;;;;5020618;28;20220;-78
2023/04/06 03:28:31;;;;;;;30.90;20.37;;;-1.00;99.90;;;;;;5022049;28;20914;-79
2023/04/06 03:31:02;;;;;;;19.50;11.40;;;-1.00;99.90;;;;;;5018002;28;20223;-78
2023/04/06 03:33:46;;;;;;;12.27;7.53;;;-1.00;99.90;;;;;;5018363;28;20218;-80
2023/04/06 03:36:34;;;;;;;17.17;11.23;;;-1.10;99.90;;;;;;5034959;28;20252;-80
2023/04/06 03:39:03;;;;;;;12.17;9.57;;;-1.10;99.90;;;;;;5019580;28;20251;-78
2023/04/06 03:41:32;;;;;;;15.67;10.07;;;-1.10;99.90;;;;;;5010777;28;20219;-78
2023/04/06 03:44:10;;;;;;;11.57;7.57;;;-1.10;99.90;;;;;;5036645;28;20221;-78
2023/04/06 03:46:37;;;;;;;13.07;9.13;;;-1.10;99.90;;;;;;5017612;28;20270;-79
2023/04/06 03:49:04;;;;;;;11.63;6.53;;;-1.10;99.90;;;;;;5017900;28;20225;-77
2023/04/06 03:51:31;;;;;;;10.37;5.90;;;-1.10;99.90;;;;;;5017662;28;20224;-79
2023/04/06 03:53:59;;;;;;;10.17;5.50;;;-1.20;99.90;;;;;;5021185;28;20310;-78
2023/04/06 03:56:26;;;;;;;7.47;5.30;;;-1.20;99.90;;;;;;5015914;28;20256;-80
2023/04/06 03:58:54;;;;;;;7.67;4.97;;;-1.20;99.90;;;;;;5020269;28;20221;-78
2023/04/06 04:01:21;;;;;;;7.50;4.77;;;-1.30;99.90;;;;;;5020483;28;20220;-78
2023/04/06 04:03:48;;;;;;;10.47;8.30;;;-1.30;99.90;;;;;;5022674;28;20784;-79
2023/04/06 04:06:15;;;;;;;8.33;6.57;;;-1.30;99.90;;;;;;5022149;28;20221;-77
2023/04/06 04:08:42;;;;;;;10.40;6.23;;;-1.30;99.90;;;;;;5019665;28;20243;-78
2023/04/06 04:11:10;;;;;;;7.73;5.67;;;-1.40;99.90;;;;;;5018368;28;20236;-79
2023/04/06 04:13:37;;;;;;;10.87;6.50;;;-1.40;99.90;;;;;;5017088;28;20303;-78
2023/04/06 04:16:06;;;;;;;11.70;6.13;;;-1.40;99.90;;;;;;5020622;28;20447;-81
2023/04/06 04:18:32;;;;;;;8.43;5.93;;;-1.40;99.90;;;;;;5019540;28;20228;-77
2023/04/06 04:21:00;;;;;;;9.27;5.87;;;-1.50;99.90;;;;;;5032790;28;20220;-80
2023/04/06 04:23:26;;;;;;;10.87;6.47;;;-1.50;99.90;;;;;;5017533;28;20288;-79
2023/04/06 04:25:53;;;;;;;7.97;5.37;;;-1.50;99.90;;;;;;5013113;28;20239;-79
2023/04/06 04:28:21;;;;;;;9.57;5.80;;;-1.50;99.90;;;;;;5017852;28;20247;-85
2023/04/06 04:30:48;;;;;;;11.43;6.43;;;-1.60;99.90;;;;;;5015580;28;20221;-80
2023/04/06 04:33:15;;;;;;;8.83;6.10;;;-1.60;99.90;;;;;;5041112;28;20286;-80
2023/04/06 04:35:43;;;;;;;9.30;6.30;;;-1.60;99.90;;;;;;5024988;28;20283;-79
2023/04/06 04:38:13;;;;;;;11.67;6.40;;;-1.60;99.90;;;;;;5018780;28;20304;-79
2023/04/06 04:40:42;;;;;;;10.57;7.13;;;-1.70;99.90;;;;;;5021264;28;20306;-81
2023/04/06 04:43:12;;;;;;;15.17;7.00;;;-1.60;99.90;;;;;;5012126;28;20243;-81
2023/04/06 04:45:41;;;;;;;10.73;6.67;;;-1.60;99.90;;;;;;5018407;28;20249;-82
2023/04/06 04:48:17;;;;;;;11.97;7.27;;;-1.70;99.90;;;;;;5019637;28;20328;-80
2023/04/06 04:51:01;;;;;;;9.53;6.73;;;-1.70;99.90;;;;;;5021549;28;20303;-79
2023/04/06 04:53:35;;;;;;;11.83;7.13;;;-1.70;99.90;;;;;;5018618;28;20222;-82
2023/04/06 04:56:10;;;;;;;10.47;6.67;;;-1.60;99.90;;;;;;5019015;28;20227;-80
2023/04/06 04:58:37;;;;;;;11.73;7.73;;;-1.60;99.90;;;;;;5016589;28;20224;-80
2023/04/06 05:01:06;;;;;;;9.90;6.97;;;-1.60;99.90;;;;;;5022747;28;20220;-80
2023/04/06 05:03:33;;;;;;;10.83;8.10;;;-1.60;99.90;;;;;;5023260;28;20306;-82
2023/04/06 05:06:06;;;;;;;10.97;7.37;;;-1.60;99.90;;;;;;5035311;28;20840;-80
2023/04/06 05:08:37;;;;;;;11.30;7.73;;;-1.50;99.90;;;;;;5018055;28;20217;-79
2023/04/06 05:11:05;;;;;;;13.57;8.37;;;-1.50;99.90;;;;;;5014189;28;20221;-79
2023/04/06 05:13:36;;;;;;;12.57;7.73;;;-1.50;99.90;;;;;;5018500;28;20231;-79
2023/04/06 05:16:10;;;;;;;12.17;7.83;;;-1.50;99.90;;;;;;5012965;28;20222;-73
2023/04/06 05:18:37;;;;;;;12.73;7.20;;;-1.40;99.90;;;;;;5013961;28;20226;-73
2023/04/06 05:21:05;;;;;;;12.23;7.97;;;-1.40;99.90;;;;;;5018705;28;20336;-75
2023/04/06 05:23:53;;;;;;;13.20;7.73;;;-1.40;99.90;;;;;;5021366;28;21041;-73
2023/04/06 05:26:20;;;;;;;11.90;8.13;;;-1.30;99.90;;;;;;5014269;28;20552;-73
2023/04/06 05:28:47;;;;;;;11.73;7.97;;;-1.30;99.90;;;;;;5018787;28;20239;-73
2023/04/06 05:31:16;;;;;;;13.40;8.73;;;-1.20;99.90;;;;;;5022357;28;20306;-73
2023/04/06 05:33:48;;;;;;;9.73;7.60;;;-1.20;99.90;;;;;;4988639;28;20252;-73
2023/04/06 05:36:16;;;;;;;11.63;8.10;;;-1.10;99.90;;;;;;5009570;28;20224;-74
2023/04/06 05:38:46;;;;;;;12.57;8.30;;;-1.10;99.90;;;;;;5014259;28;20219;-73
2023/04/06 05:41:32;;;;;;;11.60;7.50;;;-1.00;99.90;;;;;;5018966;28;20223;-73
2023/04/06 05:43:59;;;;;;;10.67;7.20;;;-0.80;99.90;;;;;;5033874;28;20272;-73
2023/04/06 05:46:27;;;;;;;12.37;7.77;;;-0.70;99.90;;;;;;5012868;28;20286;-73
2023/04/06 05:48:56;;;;;;;12.10;7.43;;;-0.50;99.90;;;;;;5012948;28;20221;-73
2023/04/06 05:51:27;;;;;;;11.37;8.03;;;-0.30;99.90;;;;;;5020650;28;20227;-73
2023/04/06 05:53:54;;;;;;;12.50;7.40;;;0.00;99.90;;;;;;5021807;28;20780;-73
2023/04/06 05:56:21;;;;;;;10.77;6.87;;;0.20;99.90;;;;;;5015783;28;20226;-73
2023/04/06 05:58:48;;;;;;;10.90;7.20;;;0.40;99.90;;;;;;5032747;28;20613;-73
2023/04/06 06:01:20;;;;;;;9.03;6.77;;;0.60;99.90;;;;;;5014812;28;20234;-73
2023/04/06 06:03:49;;;;;;;9.40;6.53;;;0.70;99.90;;;;;;5015158;28;20295;-73
2023/04/06 06:06:16;;;;;;;9.50;7.20;;;0.80;99.90;;;;;;5016410;28;20235;-73
2023/04/06 06:09:08;;;;;;;11.67;7.97;;;0.90;99.90;;;;;;5020812;28;20229;-73
2023/04/06 06:11:40;;;;;;;10.40;7.20;;;1.10;99.90;;;;;;5017525;28;20220;-74
2023/04/06 06:14:08;;;;;;;8.73;6.37;;;1.10;99.90;;;;;;5016365;28;20637;-73
2023/04/06 06:16:38;;;;;;;10.20;7.10;;;1.30;99.90;;;;;;5016229;28;20700;-73
2023/04/06 06:19:07;;;;;;;9.10;6.70;;;1.50;99.90;;;;;;5017632;28;20233;-73
2023/04/06 06:21:35;;;;;;;9.63;6.80;;;1.70;99.90;;;;;;5035561;28;20315;-73
2023/04/06 06:24:04;;;;;;;8.80;6.67;;;1.90;99.90;;;;;;5013283;28;20338;-74
2023/04/06 06:26:31;;;;;;;9.30;6.37;;;2.10;99.90;;;;;;5027489;28;20239;-73
2023/04/06 06:28:58;;;;;;;10.23;6.97;;;2.40;99.90;;;;;;5014557;28;20608;-73
2023/04/06 06:31:25;;;;;;;9.70;6.70;;;2.60;99.90;;;;;;5009839;28;20237;-74
2023/04/06 06:33:53;;;;;;;8.13;6.80;;;2.70;99.90;;;;;;5016305;28;20418;-75
2023/04/06 06:36:22;;;;;;;9.30;6.70;;;2.80;99.90;;;;;;5032314;28;20227;-76
2023/04/06 06:38:49;;;;;;;8.43;6.43;;;2.90;99.90;;;;;;5039221;28;20300;-75
2023/04/06 06:41:18;;;;;;;10.03;6.50;;;3.00;99.90;;;;;;5017338;28;20263;-75
2023/04/06 06:43:45;;;;;;;9.13;6.33;;;3.10;99.90;;;;;;5018115;28;20253;-75
2023/04/06 06:46:12;;;;;;;9.00;7.03;;;3.20;99.90;;;;;;5019760;28;20688;-76
2023/04/06 06:48:40;;;;;;;10.03;7.00;;;3.40;99.90;;;;;;5017281;28;20232;-75
2023/04/06 06:51:07;;;;;;;8.47;6.30;;;3.50;99.90;;;;;;5019573;28;20233;-76
2023/04/06 06:53:35;;;;;;;9.30;6.90;;;3.60;99.90;;;;;;5012733;28;20312;-75
2023/04/06 06:56:02;;;;;;;9.50;6.20;;;3.60;99.90;;;;;;5012730;28;20307;-76
2023/04/06 06:58:30;;;;;;;9.67;6.43;;;3.70;99.90;;;;;;5016827;28;20256;-76
2023/04/06 07:00:58;;;;;;;8.70;5.97;;;3.80;99.90;;;;;;5018368;28;20227;-76
2023/04/06 07:03:24;;;;;;;10.40;6.03;;;3.80;99.90;;;;;;5012211;28;20297;-76
2023/04/06 07:05:53;;;;;;;8.27;6.10;;;3.80;99.90;;;;;;5023205;28;20537;-76
2023/04/06 07:08:21;;;;;;;8.17;5.83;;;3.70;99.90;;;;;;5016431;28;20873;-76
2023/04/06 07:10:50;;;;;;;7.73;6.03;;;3.70;99.90;;;;;;5014972;28;20314;-76
2023/04/06 07:13:20;;;;;;;7.43;5.80;;;3.70;99.90;;;;;;5016430;28;20231;-76
2023/04/06 07:15:47;;;;;;;5.70;5.10;;;3.60;99.90;;;;;;5026777;28;20224;-75
2023/04/06 07:18:14;;;;;;;9.80;5.93;;;3.60;99.90;;;;;;5017331;28;20346;-75
2023/04/06 07:20:41;;;;;;;8.00;5.57;;;3.70;99.90;;;;;;5016990;28;20228;-76
2023/04/06 07:23:08;;;;;;;6.37;5.00;;;3.70;99.90;;;;;;5015340;28;20223;-76
2023/04/06 07:25:34;;;;;;;6.23;4.83;;;3.80;99.80;;;;;;5020513;28;20594;-75
2023/04/06 07:28:04;;;;;;;6.87;5.47;;;3.90;99.40;;;;;;5019335;28;20236;-76
2023/04/06 07:30:32;;;;;;;7.50;5.60;;;3.90;99.50;;;;;;5030218;28;20233;-75
2023/04/06 07:33:00;;;;;;;10.33;5.47;;;4.00;99.90;;;;;;5010133;28;20224;-76
2023/04/06 07:35:29;;;;;;;6.23;5.17;;;4.10;99.90;;;;;;5020008;28;20228;-76
2023/04/06 07:37:57;;;;;;;10.43;5.13;;;4.10;99.50;;;;;;5023461;28;20244;-76
2023/04/06 07:40:25;;;;;;;8.23;5.20;;;4.10;98.90;;;;;;5020547;28;20378;-75
2023/04/06 07:42:53;;;;;;;6.53;4.70;;;4.20;99.20;;;;;;5033247;28;20230;-76
2023/04/06 07:45:21;;;;;;;7.77;4.93;;;4.30;99.40;;;;;;5023027;28;20774;-76
2023/04/06 07:47:48;;;;;;;5.97;5.10;;;4.40;99.10;;;;;;5020644;28;20224;-76
2023/04/06 07:50:15;;;;;;;5.90;4.57;;;4.40;98.70;;;;;;5020502;28;20615;-76
2023/04/06 07:52:42;;;;;;;6.00;5.10;;;4.60;98.80;;;;;;5020616;28;20235;-77
2023/04/06 07:55:09;;;;;;;8.03;4.80;;;4.90;99.20;;;;;;5020534;28;20233;-76
2023/04/06 07:57:36;;;;;;;6.67;4.13;;;5.40;98.00;;;;;;5024755;28;20635;-76
2023/04/06 08:00:04;;;;;;;6.27;4.30;;;6.00;98.50;;;;;;5022629;28;20248;-77
2023/04/06 08:02:40;;;;;;;7.20;4.20;;;6.60;95.60;;;;;;5016375;28;20313;-76
2023/04/06 08:05:07;;;;;;;5.47;4.27;;;7.40;96.60;;;;;;5017122;28;20271;-77
2023/04/06 08:07:33;;;;;;;5.57;3.70;;;8.10;97.20;;;;;;5017390;28;20237;-76
2023/04/06 08:10:02;;;;;;;5.63;4.00;;;8.90;97.50;;;;;;5023999;28;20303;-76
2023/04/06 08:12:29;;;;;;;5.40;4.00;;;9.70;96.30;;;;;;5018024;28;20286;-77
2023/04/06 08:14:56;;;;;;;5.37;4.00;;;10.50;90.60;;;;;;5015794;28;20235;-77
2023/04/06 08:17:23;;;;;;;6.53;3.83;;;11.20;88.20;;;;;;5024094;28;21790;-77
2023/04/06 08:19:51;;;;;;;5.90;4.00;;;11.60;82.00;;;;;;5020042;28;20698;-77
2023/04/06 08:22:18;;;;;;;5.53;3.90;;;12.10;85.10;;;;;;5017426;28;20232;-77
2023/04/06 08:24:45;;;;;;;6.00;4.00;;;12.50;87.70;;;;;;5016489;28;20214;-77
2023/04/06 08:27:13;;;;;;;5.33;3.80;;;12.90;84.80;;;;;;5013371;28;20228;-77
2023/04/06 08:29:40;;;;;;;6.00;3.50;;;13.30;80.70;;;;;;5015618;28;20740;-77
2023/04/06 08:32:07;;;;;;;5.97;3.90;;;13.50;74.50;;;;;;5016310;28;20266;-77
2023/04/06 08:34:34;;;;;;;5.20;3.80;;;13.70;69.80;;;;;;5013034;28;20229;-76
2023/04/06 08:37:04;;;;;;;6.00;4.27;;;13.80;67.10;;;;;;5016600;28;20234;-77
2023/04/06 08:39:33;;;;;;;7.30;4.20;;;14.00;64.50;;;;;;5014285;28;20223;-75
2023/04/06 08:42:02;;;;;;;5.07;3.80;;;14.10;65.50;;;;;;5031702;28;20219;-77
2023/04/06 08:44:29;;;;;;;4.80;3.60;;;14.10;61.80;;;;;;5007902;28;20239;-77
2023/04/06 08:46:59;;;;;;;6.80;3.80;;;14.10;61.40;;;;;;5015120;28;20233;-76
2023/04/06 08:49:27;;;;;;;5.00;3.40;;;14.10;63.40;;;;;;5011880;28;20281;-76
2023/04/06 08:51:54;;;;;;;5.20;4.13;;;14.30;62.40;;;;;;5018314;28;20536;-76
2023/04/06 08:54:22;;;;;;;4.03;3.00;;;14.30;59.20;;;;;;5014612;28;20222;-76
2023/04/06 08:56:49;;;;;;;5.30;3.87;;;14.30;55.60;;;;;;5025521;28;20742;-76
2023/04/06 08:59:16;;;;;;;5.20;3.60;;;14.20;54.20;;;;;;5023204;28;20764;-77
2023/04/06 09:01:45;;;;;;;10.10;3.70;;;14.20;57.50;;;;;;5022169;28;20596;-77
2023/04/06 09:04:13;;;;;;;4.97;3.40;;;14.20;53.50;;;;;;5018657;28;20221;-76
2023/04/06 09:06:40;;;;;;;4.00;3.20;;;14.20;55.60;;;;;;5019411;28;20307;-77
2023/04/06 09:09:07;;;;;;;5.47;3.23;;;14.30;54.30;;;;;;5020425;28;20227;-77
2023/04/06 09:11:49;;;;;;;4.63;3.20;;;14.20;54.20;;;;;;5014630;28;20235;-77
2023/04/06 09:14:16;;;;;;;5.37;3.40;;;14.30;56.50;;;;;;5016080;28;20228;-76
2023/04/06 09:16:45;;;;;;;4.80;2.83;;;14.30;53.80;;;;;;5021532;28;20248;-77
2023/04/06 09:19:12;;;;;;;5.23;3.40;;;14.50;54.70;;;;;;5011802;28;20244;-77
2023/04/06 09:21:40;;;;;;;4.03;3.10;;;14.40;50.80;;;;;;5016418;28;20240;-77
2023/04/06 09:24:10;;;;;;;5.17;3.30;;;14.40;50.30;;;;;;5021194;28;20224;-77
2023/04/06 09:26:46;;;;;;;4.07;3.00;;;14.50;51.70;;;;;;5024829;28;20247;-77
2023/04/06 09:29:23;;;;;;;4.67;3.10;;;14.50;51.50;;;;;;5015943;28;20233;-76
2023/04/06 09:31:49;;;;;;;5.80;3.07;;;14.60;50.20;;;;;;5021416;28;20227;-77
2023/04/06 09:34:21;;;;;;;4.63;3.30;;;14.60;50.40;;;;;;5020325;28;20309;-77
2023/04/06 09:36:48;;;;;;;4.07;3.00;;;14.60;49.40;;;;;;5022977;28;20969;-76
2023/04/06 09:39:15;;;;;;;3.63;2.70;;;14.60;52.00;;;;;;5016518;28;20723;-76
2023/04/06 09:41:42;;;;;;;4.10;2.93;;;14.50;48.20;;;;;;5014897;28;20232;-77
2023/04/06 09:44:10;;;;;;;4.17;2.90;;;14.60;51.90;;;;;;5012544;28;20601;-77
2023/04/06 09:46:40;;;;;;;4.87;3.10;;;14.50;50.30;;;;;;5018448;28;20619;-77
2023/04/06 09:49:08;;;;;;;6.07;2.80;;;14.50;51.40;;;;;;5022951;28;20223;-77
2023/04/06 09:51:38;;;;;;;4.97;3.30;;;14.60;51.80;;;;;;5022225;28;20228;-77
2023/04/06 09:54:06;;;;;;;4.47;3.03;;;14.70;51.00;;;;;;5016361;28;22023;-77
2023/04/06 09:56:42;;;;;;;5.90;3.47;;;14.80;51.60;;;;;;5017249;28;20243;-77
2023/04/06 09:59:13;;;;;;;5.50;3.63;;;14.90;51.00;;;;;;5018311;28;20246;-75
2023/04/06 10:01:42;;;;;;;5.67;3.40;;;15.00;51.90;;;;;;5020922;28;20268;-76
2023/04/06 10:04:22;;;;;;;6.10;4.00;;;15.00;50.30;;;;;;5017493;28;20216;-76
2023/04/06 10:06:52;;;;;;;4.50;3.10;;;14.80;48.90;;;;;;5016125;28;20236;-76
2023/04/06 10:09:20;;;;;;;5.10;3.50;;;14.70;51.80;;;;;;5012411;28;20223;-77
2023/04/06 10:11:48;;;;;;;3.63;3.17;;;14.70;51.00;;;;;;5012107;28;20242;-77
2023/04/06 10:14:16;;;;;;;5.40;3.17;;;14.70;50.60;;;;;;5012783;28;20223;-77
2023/04/06 10:16:45;;;;;;;5.00;2.97;;;14.80;50.90;;;;;;5014322;28;22699;-77
2023/04/06 10:19:19;;;;;;;2.77;2.50;;;14.80;50.40;;;;;;5014153;28;20221;-77
2023/04/06 10:21:51;;;;;;;4.67;3.13;;;14.90;48.10;;;;;;5018784;28;20900;-77
2023/04/06 10:24:18;;;;;;;4.30;3.03;;;15.00;48.60;;;;;;5017506;28;20228;-77
2023/04/06 10:26:58;;;;;;;4.10;3.30;;;15.00;48.80;;;;;;5052716;23;20235;-79
2023/04/06 10:29:27;;;;;;;6.13;3.93;;;15.00;46.30;;;;;;4967352;28;20284;-79
2023/04/06 10:31:58;;;;;;;6.53;3.70;;;15.00;45.50;;;;;;4973112;28;20884;-79
2023/04/06 10:34:35;;;;;;;6.23;3.90;;;15.00;45.70;;;;;;4983038;28;20228;-79
2023/04/06 10:37:12;;;;;;;5.87;3.70;;;15.00;46.90;;;;;;4969535;28;20813;-79
2023/04/06 10:39:47;;;;;;;6.43;4.13;;;15.10;48.70;;;;;;4969189;28;20722;-79
2023/04/06 10:42:14;;;;;;;4.43;3.63;;;15.20;48.80;;;;;;4967125;28;20236;-79
2023/04/06 10:44:44;;;;;;;4.03;3.23;;;15.30;48.00;;;;;;4968028;28;20577;-79
2023/04/06 10:47:18;;;;;;;5.10;3.90;;;15.60;49.10;;;;;;4967576;28;20322;-79
2023/04/06 10:49:45;;;;;;;5.07;3.70;;;15.80;47.10;;;;;;4968444;28;20920;-79
2023/04/06 10:52:12;;;;;;;8.50;4.60;;;16.00;47.90;;;;;;4984056;28;20226;-78
2023/04/06 10:54:43;;;;;;;5.53;4.17;;;15.90;46.40;;;;;;4969478;28;20234;-78
2023/04/06 10:57:09;;;;;;;6.20;4.50;;;16.00;46.10;;;;;;4968766;28;20238;-79
2023/04/06 10:59:36;;;;;;;7.63;5.20;;;16.00;46.60;;;;;;4970029;28;20956;-79
2023/04/06 11:02:03;;;;;;;5.67;4.40;;;15.90;44.80;;;;;;4973884;28;20226;-79
2023/04/06 11:04:31;;;;;;;7.17;4.43;;;16.00;47.50;;;;;;4971039;28;20230;-79
2023/04/06 11:06:58;;;;;;;4.70;3.93;;;16.00;46.60;;;;;;4974163;28;20258;-79
2023/04/06 11:09:29;;;;;;;7.10;4.30;;;16.10;46.90;;;;;;4974448;28;20223;-79
2023/04/06 11:11:56;;;;;;;7.23;4.70;;;16.20;47.40;;;;;;4969964;28;20266;-79
2023/04/06 11:14:23;;;;;;;6.13;4.93;;;16.20;43.80;;;;;;4969634;28;20231;-79
2023/04/06 11:16:50;;;;;;;6.30;4.63;;;16.20;44.70;;;;;;4962963;28;20233;-79
2023/04/06 11:19:18;;;;;;;9.90;5.67;;;16.20;45.50;;;;;;4973393;28;20729;-79
2023/04/06 11:21:50;;;;;;;6.73;5.13;;;16.10;45.00;;;;;;4972439;28;20611;-79
2023/04/06 11:24:19;;;;;;;5.37;4.70;;;16.10;46.60;;;;;;4971794;28;20649;-79
2023/04/06 11:26:50;;;;;;;7.33;5.30;;;16.20;47.20;;;;;;4970922;28;20637;-79
2023/04/06 11:29:19;;;;;;;5.73;4.87;;;16.20;46.80;;;;;;4971134;28;20227;-78
2023/04/06 11:31:48;;;;;;;6.90;5.40;;;16.40;45.90;;;;;;4972381;28;20227;-79
2023/04/06 11:34:18;;;;;;;6.57;5.60;;;16.50;46.90;;;;;;4985669;28;20241;-79
2023/04/06 11:36:48;;;;;;;7.40;5.30;;;16.40;43.80;;;;;;4973056;28;20231;-79
2023/04/06 11:39:19;;;;;;;6.50;5.13;;;16.40;44.70;;;;;;4971879;28;20665;-79
2023/04/06 11:41:48;;;;;;;7.20;5.70;;;16.40;46.20;;;;;;4972589;28;20235;-79
2023/04/06 11:44:27;;;;;;;7.67;5.47;;;16.40;45.10;;;;;;4971323;28;20226;-79
2023/04/06 11:46:54;;;;;;;8.83;6.20;;;16.40;44.80;;;;;;4987068;28;20235;-79
2023/04/06 11:49:21;;;;;;;7.83;6.47;;;16.10;43.70;;;;;;4970438;28;20254;-79
2023/04/06 11:51:49;;;;;;;7.97;5.70;;;16.00;44.60;;;;;;4969651;28;20234;-80
2023/04/06 11:54:16;;;;;;;7.73;5.93;;;16.00;45.30;;;;;;4965226;28;20258;-79
2023/04/06 11:56:47;;;;;;;8.17;5.70;;;15.80;44.00;;;;;;4967916;28;20229;-79
2023/04/06 11:59:13;;;;;;;7.43;6.03;;;15.70;45.40;;;;;;4962395;28;20223;-79
2023/04/06 12:01:46;;;;;;;7.60;6.23;;;15.60;44.20;;;;;;4951057;28;20761;-79
2023/04/06 12:04:13;;;;;;;6.83;5.87;;;15.60;45.60;;;;;;4954911;28;20219;-79
2023/04/06 12:06:40;;;;;;;9.87;6.40;;;15.60;45.00;;;;;;4983893;28;20241;-79
2023/04/06 12:09:10;;;;;;;8.47;6.10;;;15.50;45.10;;;;;;4964732;28;20846;-78
2023/04/06 12:11:36;;;;;;;6.63;5.73;;;15.30;43.70;;;;;;4971237;28;20313;-79
2023/04/06 12:14:05;;;;;;;9.60;5.87;;;15.40;46.00;;;;;;4949400;28;20282;-80
2023/04/06 12:16:32;;;;;;;6.73;5.80;;;15.30;45.70;;;;;;4957893;28;20309;-79
2023/04/06 12:18:58;;;;;;;9.07;6.23;;;15.20;45.00;;;;;;4966428;28;20264;-80
2023/04/06 12:21:25;;;;;;;6.63;5.70;;;15.20;44.20;;;;;;4962060;28;20248;-79
2023/04/06 12:23:52;;;;;;;7.27;5.63;;;15.20;45.20;;;;;;4958139;28;20222;-79
2023/04/06 12:26:20;;;;;;;8.23;5.67;;;15.20;46.70;;;;;;4969143;28;20321;-79
2023/04/06 12:28:46;;;;;;;7.97;5.97;;;15.30;47.00;;;;;;4951097;28;20238;-79
2023/04/06 12:31:16;;;;;;;7.40;5.57;;;15.40;46.90;;;;;;4975821;28;20246;-79
2023/04/06 12:33:44;;;;;;;7.03;5.77;;;15.50;46.10;;;;;;4967206;28;20243;-79
2023/04/06 12:36:15;;;;;;;7.33;5.40;;;15.60;46.40;;;;;;4969103;28;20223;-79
2023/04/06 12:38:44;;;;;;;6.53;5.47;;;15.70;45.40;;;;;;4962992;28;20227;-80
2023/04/06 12:41:11;;;;;;;7.87;5.73;;;15.60;44.60;;;;;;4957628;28;20609;-79
2023/04/06 12:43:39;;;;;;;7.87;5.70;;;15.60;44.60;;;;;;4957362;28;20638;-79
2023/04/06 12:46:06;;;;;;;7.93;5.83;;;15.60;45.20;;;;;;4965205;28;20258;-81
2023/04/06 12:48:33;;;;;;;7.40;6.20;;;15.50;46.50;;;;;;4955849;28;20231;-79
2023/04/06 12:51:01;;;;;;;6.77;5.20;;;15.60;45.10;;;;;;4955027;28;20238;-79
2023/04/06 12:53:28;;;;;;;7.50;5.93;;;15.70;46.90;;;;;;4960662;28;20237;-79
2023/04/06 12:55:56;;;;;;;7.20;5.97;;;15.50;45.10;;;;;;4965098;28;20222;-82
2023/04/06 12:58:23;;;;;;;7.03;5.70;;;15.50;44.00;;;;;;4959838;28;20263;-79
2023/04/06 13:00:51;;;;;;;6.43;5.60;;;15.50;45.00;;;;;;4956406;28;20231;-79